sensor_id;sensor_type;location;lat;lon;timestamp;P1;durP1;ratioP1;P2;durP2;ratioP2
72109;SDS011;59983;52.010;5.420;2023-07-16T00:02:00;6.13;;;3.20;;
72109;SDS011;59983;52.010;5.420;2023-07-16T00:04:27;5.53;;;4.07;;
72109;SDS011;59983;52.010;5.420;2023-07-16T00:06:54;3.57;;;2.93;;
72109;SDS011;59983;52.010;5.420;2023-07-16T00:09:20;6.03;;;3.00;;
72109;SDS011;59983;52.010;5.420;2023-07-16T00:11:47;3.65;;;3.28;;
72109;SDS011;59983;52.010;5.420;2023-07-16T00:14:13;8.45;;;3.22;;
72109;SDS011;59983;52.010;5.420;2023-07-16T00:16:40;5.32;;;3.30;;
72109;SDS011;59983;52.010;5.420;2023-07-16T00:19:07;7.23;;;2.90;;
72109;SDS011;59983;52.010;5.420;2023-07-16T00:21:33;6.75;;;3.05;;
72109;SDS011;59983;52.010;5.420;2023-07-16T00:24:00;6.53;;;3.20;;
72109;SDS011;59983;52.010;5.420;2023-07-16T00:26:26;4.25;;;3.03;;
72109;SDS011;59983;52.010;5.420;2023-07-16T00:28:53;5.50;;;3.50;;
72109;SDS011;59983;52.010;5.420;2023-07-16T00:31:19;5.87;;;3.70;;
72109;SDS011;59983;52.010;5.420;2023-07-16T00:33:47;5.90;;;3.20;;
72109;SDS011;59983;52.010;5.420;2023-07-16T00:36:13;4.15;;;3.53;;
72109;SDS011;59983;52.010;5.420;2023-07-16T00:38:40;6.00;;;3.72;;
72109;SDS011;59983;52.010;5.420;2023-07-16T00:41:08;6.72;;;3.40;;
72109;SDS011;59983;52.010;5.420;2023-07-16T00:43:35;6.50;;;3.10;;
72109;SDS011;59983;52.010;5.420;2023-07-16T00:46:01;10.52;;;3.80;;
72109;SDS011;59983;52.010;5.420;2023-07-16T00:48:28;7.63;;;3.45;;
72109;SDS011;59983;52.010;5.420;2023-07-16T00:50:55;5.25;;;3.40;;
72109;SDS011;59983;52.010;5.420;2023-07-16T00:53:23;4.78;;;3.00;;
72109;SDS011;59983;52.010;5.420;2023-07-16T00:55:50;5.87;;;3.43;;
72109;SDS011;59983;52.010;5.420;2023-07-16T00:58:16;6.97;;;3.55;;
72109;SDS011;59983;52.010;5.420;2023-07-16T01:00:43;3.80;;;3.45;;
72109;SDS011;59983;52.010;5.420;2023-07-16T01:03:10;5.90;;;4.28;;
72109;SDS011;59983;52.010;5.420;2023-07-16T01:08:31;5.80;;;3.67;;
72109;SDS011;59983;52.010;5.420;2023-07-16T01:11:07;6.68;;;3.78;;
72109;SDS011;59983;52.010;5.420;2023-07-16T01:13:35;6.35;;;3.53;;
72109;SDS011;59983;52.010;5.420;2023-07-16T01:16:02;6.43;;;3.92;;
72109;SDS011;59983;52.010;5.420;2023-07-16T01:18:29;9.88;;;3.58;;
72109;SDS011;59983;52.010;5.420;2023-07-16T01:20:56;5.00;;;3.87;;
72109;SDS011;59983;52.010;5.420;2023-07-16T01:26:02;4.57;;;3.60;;
72109;SDS011;59983;52.010;5.420;2023-07-16T01:31:02;5.80;;;4.22;;
72109;SDS011;59983;52.010;5.420;2023-07-16T01:33:29;8.03;;;3.90;;
72109;SDS011;59983;52.010;5.420;2023-07-16T01:35:56;6.28;;;4.20;;
72109;SDS011;59983;52.010;5.420;2023-07-16T01:38:25;11.32;;;4.47;;
72109;SDS011;59983;52.010;5.420;2023-07-16T01:40:52;7.07;;;3.78;;
72109;SDS011;59983;52.010;5.420;2023-07-16T01:43:18;6.43;;;4.35;;
72109;SDS011;59983;52.010;5.420;2023-07-16T01:45:45;8.57;;;4.30;;
72109;SDS011;59983;52.010;5.420;2023-07-16T01:50:58;4.95;;;3.90;;
72109;SDS011;59983;52.010;5.420;2023-07-16T01:53:26;9.02;;;3.78;;
72109;SDS011;59983;52.010;5.420;2023-07-16T01:55:52;7.40;;;4.03;;
72109;SDS011;59983;52.010;5.420;2023-07-16T01:58:19;4.27;;;3.60;;
72109;SDS011;59983;52.010;5.420;2023-07-16T02:00:45;11.05;;;4.20;;
72109;SDS011;59983;52.010;5.420;2023-07-16T02:03:14;9.80;;;4.65;;
72109;SDS011;59983;52.010;5.420;2023-07-16T02:05:41;8.35;;;4.53;;
72109;SDS011;59983;52.010;5.420;2023-07-16T02:08:07;16.52;;;5.65;;
72109;SDS011;59983;52.010;5.420;2023-07-16T02:10:34;4.77;;;4.17;;
72109;SDS011;59983;52.010;5.420;2023-07-16T02:13:00;6.30;;;4.18;;
72109;SDS011;59983;52.010;5.420;2023-07-16T02:15:27;4.95;;;4.55;;
72109;SDS011;59983;52.010;5.420;2023-07-16T02:17:54;12.43;;;4.82;;
72109;SDS011;59983;52.010;5.420;2023-07-16T02:20:20;6.25;;;4.60;;
72109;SDS011;59983;52.010;5.420;2023-07-16T02:22:47;11.37;;;5.60;;
72109;SDS011;59983;52.010;5.420;2023-07-16T02:25:13;7.25;;;4.20;;
72109;SDS011;59983;52.010;5.420;2023-07-16T02:27:40;14.95;;;4.85;;
72109;SDS011;59983;52.010;5.420;2023-07-16T02:30:06;6.05;;;4.03;;
72109;SDS011;59983;52.010;5.420;2023-07-16T02:32:34;5.90;;;4.75;;
72109;SDS011;59983;52.010;5.420;2023-07-16T02:35:01;5.27;;;4.23;;
72109;SDS011;59983;52.010;5.420;2023-07-16T02:37:29;7.45;;;4.28;;
72109;SDS011;59983;52.010;5.420;2023-07-16T02:39:55;8.98;;;3.78;;
72109;SDS011;59983;52.010;5.420;2023-07-16T02:42:22;8.63;;;4.30;;
72109;SDS011;59983;52.010;5.420;2023-07-16T02:44:50;4.70;;;4.10;;
72109;SDS011;59983;52.010;5.420;2023-07-16T02:47:17;7.20;;;4.77;;
72109;SDS011;59983;52.010;5.420;2023-07-16T02:49:44;9.73;;;4.53;;
72109;SDS011;59983;52.010;5.420;2023-07-16T02:52:10;5.80;;;4.30;;
72109;SDS011;59983;52.010;5.420;2023-07-16T02:54:37;8.32;;;4.03;;
72109;SDS011;59983;52.010;5.420;2023-07-16T02:57:04;8.63;;;4.35;;
72109;SDS011;59983;52.010;5.420;2023-07-16T02:59:31;5.93;;;4.67;;
72109;SDS011;59983;52.010;5.420;2023-07-16T03:01:58;5.80;;;4.05;;
72109;SDS011;59983;52.010;5.420;2023-07-16T03:04:24;10.02;;;4.25;;
72109;SDS011;59983;52.010;5.420;2023-07-16T03:06:51;8.18;;;4.78;;
72109;SDS011;59983;52.010;5.420;2023-07-16T03:09:17;8.20;;;5.05;;
72109;SDS011;59983;52.010;5.420;2023-07-16T03:11:44;9.20;;;4.73;;
72109;SDS011;59983;52.010;5.420;2023-07-16T03:14:10;5.22;;;4.20;;
72109;SDS011;59983;52.010;5.420;2023-07-16T03:16:37;8.02;;;5.25;;
72109;SDS011;59983;52.010;5.420;2023-07-16T03:19:03;5.53;;;4.07;;
72109;SDS011;59983;52.010;5.420;2023-07-16T03:21:30;9.02;;;4.95;;
72109;SDS011;59983;52.010;5.420;2023-07-16T03:23:57;8.73;;;4.43;;
72109;SDS011;59983;52.010;5.420;2023-07-16T03:26:23;6.20;;;4.13;;
72109;SDS011;59983;52.010;5.420;2023-07-16T03:28:50;4.97;;;3.90;;
72109;SDS011;59983;52.010;5.420;2023-07-16T03:31:16;7.05;;;4.03;;
72109;SDS011;59983;52.010;5.420;2023-07-16T03:33:43;11.80;;;4.15;;
72109;SDS011;59983;52.010;5.420;2023-07-16T03:36:09;14.63;;;5.53;;
72109;SDS011;59983;52.010;5.420;2023-07-16T03:38:36;11.07;;;4.60;;
72109;SDS011;59983;52.010;5.420;2023-07-16T03:41:02;7.55;;;3.92;;
72109;SDS011;59983;52.010;5.420;2023-07-16T03:43:29;4.80;;;3.63;;
72109;SDS011;59983;52.010;5.420;2023-07-16T03:45:55;6.03;;;4.03;;
72109;SDS011;59983;52.010;5.420;2023-07-16T03:48:22;8.33;;;4.03;;
72109;SDS011;59983;52.010;5.420;2023-07-16T03:50:48;8.73;;;4.28;;
72109;SDS011;59983;52.010;5.420;2023-07-16T03:53:16;5.53;;;4.97;;
72109;SDS011;59983;52.010;5.420;2023-07-16T03:55:42;7.85;;;4.60;;
72109;SDS011;59983;52.010;5.420;2023-07-16T03:58:09;5.60;;;4.57;;
72109;SDS011;59983;52.010;5.420;2023-07-16T04:00:35;8.40;;;4.53;;
72109;SDS011;59983;52.010;5.420;2023-07-16T04:03:02;4.97;;;4.47;;
72109;SDS011;59983;52.010;5.420;2023-07-16T04:05:28;8.13;;;4.47;;
72109;SDS011;59983;52.010;5.420;2023-07-16T04:07:55;6.00;;;4.18;;
72109;SDS011;59983;52.010;5.420;2023-07-16T04:10:21;34.03;;;5.97;;
72109;SDS011;59983;52.010;5.420;2023-07-16T04:12:48;7.17;;;4.87;;
72109;SDS011;59983;52.010;5.420;2023-07-16T04:15:15;5.70;;;4.00;;
72109;SDS011;59983;52.010;5.420;2023-07-16T04:17:41;4.28;;;3.88;;
72109;SDS011;59983;52.010;5.420;2023-07-16T04:20:08;11.77;;;5.05;;
72109;SDS011;59983;52.010;5.420;2023-07-16T04:22:35;8.38;;;4.95;;
72109;SDS011;59983;52.010;5.420;2023-07-16T04:25:02;6.90;;;5.20;;
72109;SDS011;59983;52.010;5.420;2023-07-16T04:27:30;7.88;;;5.05;;
72109;SDS011;59983;52.010;5.420;2023-07-16T04:29:56;11.82;;;5.32;;
72109;SDS011;59983;52.010;5.420;2023-07-16T04:32:23;7.32;;;4.68;;
72109;SDS011;59983;52.010;5.420;2023-07-16T04:34:50;8.75;;;5.03;;
72109;SDS011;59983;52.010;5.420;2023-07-16T04:37:16;10.37;;;5.20;;
72109;SDS011;59983;52.010;5.420;2023-07-16T04:39:43;8.80;;;4.70;;
72109;SDS011;59983;52.010;5.420;2023-07-16T04:42:09;8.20;;;4.43;;
72109;SDS011;59983;52.010;5.420;2023-07-16T04:44:36;6.72;;;4.22;;
72109;SDS011;59983;52.010;5.420;2023-07-16T04:47:02;8.70;;;4.97;;
72109;SDS011;59983;52.010;5.420;2023-07-16T04:49:29;7.17;;;4.20;;
72109;SDS011;59983;52.010;5.420;2023-07-16T04:51:56;8.05;;;4.43;;
72109;SDS011;59983;52.010;5.420;2023-07-16T04:54:22;8.20;;;5.25;;
72109;SDS011;59983;52.010;5.420;2023-07-16T04:56:49;10.95;;;4.93;;
72109;SDS011;59983;52.010;5.420;2023-07-16T04:59:15;8.63;;;6.30;;
72109;SDS011;59983;52.010;5.420;2023-07-16T05:01:42;6.83;;;5.27;;
72109;SDS011;59983;52.010;5.420;2023-07-16T05:04:08;6.70;;;5.10;;
72109;SDS011;59983;52.010;5.420;2023-07-16T05:06:35;8.82;;;5.70;;
72109;SDS011;59983;52.010;5.420;2023-07-16T05:09:01;6.90;;;5.85;;
72109;SDS011;59983;52.010;5.420;2023-07-16T05:11:28;8.15;;;5.43;;
72109;SDS011;59983;52.010;5.420;2023-07-16T05:13:55;6.03;;;5.40;;
72109;SDS011;59983;52.010;5.420;2023-07-16T05:16:22;6.00;;;5.22;;
72109;SDS011;59983;52.010;5.420;2023-07-16T05:18:49;8.55;;;6.47;;
72109;SDS011;59983;52.010;5.420;2023-07-16T05:21:15;11.02;;;5.00;;
72109;SDS011;59983;52.010;5.420;2023-07-16T05:23:42;23.10;;;6.68;;
72109;SDS011;59983;52.010;5.420;2023-07-16T05:26:08;7.97;;;5.50;;
72109;SDS011;59983;52.010;5.420;2023-07-16T05:28:35;12.10;;;5.25;;
72109;SDS011;59983;52.010;5.420;2023-07-16T05:31:02;6.03;;;5.50;;
72109;SDS011;59983;52.010;5.420;2023-07-16T05:33:29;6.78;;;4.40;;
72109;SDS011;59983;52.010;5.420;2023-07-16T05:35:56;12.05;;;5.72;;
72109;SDS011;59983;52.010;5.420;2023-07-16T05:38:22;7.87;;;5.27;;
72109;SDS011;59983;52.010;5.420;2023-07-16T05:40:49;6.75;;;5.95;;
72109;SDS011;59983;52.010;5.420;2023-07-16T05:43:16;11.35;;;7.00;;
72109;SDS011;59983;52.010;5.420;2023-07-16T05:45:42;7.90;;;5.95;;
72109;SDS011;59983;52.010;5.420;2023-07-16T05:48:09;7.32;;;5.57;;
72109;SDS011;59983;52.010;5.420;2023-07-16T05:50:36;14.50;;;5.17;;
72109;SDS011;59983;52.010;5.420;2023-07-16T05:53:02;9.38;;;5.50;;
72109;SDS011;59983;52.010;5.420;2023-07-16T05:55:29;8.10;;;5.20;;
72109;SDS011;59983;52.010;5.420;2023-07-16T05:57:55;8.77;;;5.70;;
72109;SDS011;59983;52.010;5.420;2023-07-16T06:00:22;8.43;;;5.50;;
72109;SDS011;59983;52.010;5.420;2023-07-16T06:02:48;7.30;;;5.60;;
72109;SDS011;59983;52.010;5.420;2023-07-16T06:05:15;7.78;;;5.80;;
72109;SDS011;59983;52.010;5.420;2023-07-16T06:07:41;6.93;;;5.07;;
72109;SDS011;59983;52.010;5.420;2023-07-16T06:10:08;6.68;;;5.30;;
72109;SDS011;59983;52.010;5.420;2023-07-16T06:12:35;6.82;;;6.25;;
72109;SDS011;59983;52.010;5.420;2023-07-16T06:15:01;5.23;;;4.77;;
72109;SDS011;59983;52.010;5.420;2023-07-16T06:17:28;7.40;;;4.95;;
72109;SDS011;59983;52.010;5.420;2023-07-16T06:19:55;8.23;;;5.88;;
72109;SDS011;59983;52.010;5.420;2023-07-16T06:22:21;9.70;;;6.55;;
72109;SDS011;59983;52.010;5.420;2023-07-16T06:24:48;9.18;;;6.03;;
72109;SDS011;59983;52.010;5.420;2023-07-16T06:27:14;6.87;;;5.53;;
72109;SDS011;59983;52.010;5.420;2023-07-16T06:29:41;9.70;;;6.40;;
72109;SDS011;59983;52.010;5.420;2023-07-16T06:32:09;7.93;;;5.32;;
72109;SDS011;59983;52.010;5.420;2023-07-16T06:34:36;7.75;;;6.18;;
72109;SDS011;59983;52.010;5.420;2023-07-16T06:37:02;6.90;;;6.25;;
72109;SDS011;59983;52.010;5.420;2023-07-16T06:39:30;6.60;;;5.10;;
72109;SDS011;59983;52.010;5.420;2023-07-16T06:41:57;7.78;;;5.47;;
72109;SDS011;59983;52.010;5.420;2023-07-16T06:44:23;5.70;;;4.88;;
72109;SDS011;59983;52.010;5.420;2023-07-16T06:46:50;7.05;;;5.10;;
72109;SDS011;59983;52.010;5.420;2023-07-16T06:49:16;8.30;;;5.10;;
72109;SDS011;59983;52.010;5.420;2023-07-16T06:51:43;9.63;;;5.60;;
72109;SDS011;59983;52.010;5.420;2023-07-16T06:54:10;7.15;;;6.18;;
72109;SDS011;59983;52.010;5.420;2023-07-16T06:56:36;7.97;;;6.55;;
72109;SDS011;59983;52.010;5.420;2023-07-16T06:59:03;9.25;;;4.85;;
72109;SDS011;59983;52.010;5.420;2023-07-16T07:01:29;11.82;;;5.65;;
72109;SDS011;59983;52.010;5.420;2023-07-16T07:03:56;8.60;;;5.60;;
72109;SDS011;59983;52.010;5.420;2023-07-16T07:06:23;11.95;;;6.38;;
72109;SDS011;59983;52.010;5.420;2023-07-16T07:08:51;10.13;;;5.38;;
72109;SDS011;59983;52.010;5.420;2023-07-16T07:11:18;12.27;;;6.70;;
72109;SDS011;59983;52.010;5.420;2023-07-16T07:13:44;11.63;;;6.95;;
72109;SDS011;59983;52.010;5.420;2023-07-16T07:16:11;9.50;;;6.07;;
72109;SDS011;59983;52.010;5.420;2023-07-16T07:18:37;7.90;;;5.40;;
72109;SDS011;59983;52.010;5.420;2023-07-16T07:21:04;9.35;;;5.60;;
72109;SDS011;59983;52.010;5.420;2023-07-16T07:23:31;8.35;;;5.13;;
72109;SDS011;59983;52.010;5.420;2023-07-16T07:25:57;9.52;;;5.78;;
72109;SDS011;59983;52.010;5.420;2023-07-16T07:28:24;6.73;;;4.70;;
72109;SDS011;59983;52.010;5.420;2023-07-16T07:30:50;7.68;;;5.53;;
72109;SDS011;59983;52.010;5.420;2023-07-16T07:33:17;5.93;;;4.82;;
72109;SDS011;59983;52.010;5.420;2023-07-16T07:35:44;8.20;;;5.38;;
72109;SDS011;59983;52.010;5.420;2023-07-16T07:38:10;8.50;;;5.10;;
72109;SDS011;59983;52.010;5.420;2023-07-16T07:40:37;7.77;;;5.50;;
72109;SDS011;59983;52.010;5.420;2023-07-16T07:43:03;7.50;;;5.55;;
72109;SDS011;59983;52.010;5.420;2023-07-16T07:45:30;7.68;;;5.80;;
72109;SDS011;59983;52.010;5.420;2023-07-16T07:47:56;5.40;;;4.65;;
72109;SDS011;59983;52.010;5.420;2023-07-16T07:50:23;9.68;;;5.18;;
72109;SDS011;59983;52.010;5.420;2023-07-16T07:52:52;7.17;;;5.70;;
72109;SDS011;59983;52.010;5.420;2023-07-16T07:55:18;8.93;;;5.40;;
72109;SDS011;59983;52.010;5.420;2023-07-16T07:57:45;9.02;;;4.82;;
72109;SDS011;59983;52.010;5.420;2023-07-16T08:00:11;9.00;;;6.05;;
72109;SDS011;59983;52.010;5.420;2023-07-16T08:02:38;9.30;;;5.25;;
72109;SDS011;59983;52.010;5.420;2023-07-16T08:05:05;6.20;;;4.83;;
72109;SDS011;59983;52.010;5.420;2023-07-16T08:07:33;8.10;;;5.80;;
72109;SDS011;59983;52.010;5.420;2023-07-16T08:09:59;15.05;;;5.78;;
72109;SDS011;59983;52.010;5.420;2023-07-16T08:12:26;11.85;;;5.90;;
72109;SDS011;59983;52.010;5.420;2023-07-16T08:14:52;11.00;;;5.22;;
72109;SDS011;59983;52.010;5.420;2023-07-16T08:17:19;10.20;;;6.03;;
72109;SDS011;59983;52.010;5.420;2023-07-16T08:19:49;11.30;;;6.38;;
72109;SDS011;59983;52.010;5.420;2023-07-16T08:22:16;8.98;;;6.90;;
72109;SDS011;59983;52.010;5.420;2023-07-16T08:24:42;7.30;;;5.45;;
72109;SDS011;59983;52.010;5.420;2023-07-16T08:27:09;9.20;;;7.05;;
72109;SDS011;59983;52.010;5.420;2023-07-16T08:29:36;8.77;;;6.20;;
72109;SDS011;59983;52.010;5.420;2023-07-16T08:32:02;9.35;;;5.30;;
72109;SDS011;59983;52.010;5.420;2023-07-16T08:34:29;11.20;;;6.25;;
72109;SDS011;59983;52.010;5.420;2023-07-16T08:36:56;9.60;;;5.55;;
72109;SDS011;59983;52.010;5.420;2023-07-16T08:39:24;11.63;;;5.97;;
72109;SDS011;59983;52.010;5.420;2023-07-16T08:41:52;12.20;;;6.23;;
72109;SDS011;59983;52.010;5.420;2023-07-16T08:44:19;11.82;;;6.05;;
72109;SDS011;59983;52.010;5.420;2023-07-16T08:46:47;10.07;;;5.50;;
72109;SDS011;59983;52.010;5.420;2023-07-16T08:49:14;9.10;;;5.55;;
72109;SDS011;59983;52.010;5.420;2023-07-16T08:51:45;9.50;;;6.28;;
72109;SDS011;59983;52.010;5.420;2023-07-16T08:54:14;12.53;;;5.70;;
72109;SDS011;59983;52.010;5.420;2023-07-16T08:56:43;14.15;;;6.43;;
72109;SDS011;59983;52.010;5.420;2023-07-16T08:59:10;10.07;;;6.68;;
72109;SDS011;59983;52.010;5.420;2023-07-16T09:01:37;9.00;;;6.55;;
72109;SDS011;59983;52.010;5.420;2023-07-16T09:04:04;7.82;;;5.55;;
72109;SDS011;59983;52.010;5.420;2023-07-16T09:06:30;10.10;;;5.90;;
72109;SDS011;59983;52.010;5.420;2023-07-16T09:08:57;9.40;;;6.10;;
72109;SDS011;59983;52.010;5.420;2023-07-16T09:11:24;11.57;;;6.32;;
72109;SDS011;59983;52.010;5.420;2023-07-16T09:13:50;9.60;;;5.88;;
72109;SDS011;59983;52.010;5.420;2023-07-16T09:16:17;12.93;;;6.35;;
72109;SDS011;59983;52.010;5.420;2023-07-16T09:18:45;17.30;;;6.87;;
72109;SDS011;59983;52.010;5.420;2023-07-16T09:21:11;8.77;;;6.30;;
72109;SDS011;59983;52.010;5.420;2023-07-16T09:23:39;10.70;;;5.80;;
72109;SDS011;59983;52.010;5.420;2023-07-16T09:26:07;8.90;;;5.85;;
72109;SDS011;59983;52.010;5.420;2023-07-16T09:28:34;5.88;;;5.30;;
72109;SDS011;59983;52.010;5.420;2023-07-16T09:31:07;9.27;;;5.27;;
72109;SDS011;59983;52.010;5.420;2023-07-16T09:33:34;7.35;;;5.65;;
72109;SDS011;59983;52.010;5.420;2023-07-16T09:36:01;11.52;;;6.65;;
72109;SDS011;59983;52.010;5.420;2023-07-16T09:38:29;8.43;;;5.90;;
72109;SDS011;59983;52.010;5.420;2023-07-16T09:40:58;7.78;;;5.57;;
72109;SDS011;59983;52.010;5.420;2023-07-16T09:43:25;7.07;;;5.07;;
72109;SDS011;59983;52.010;5.420;2023-07-16T09:45:52;7.03;;;5.90;;
72109;SDS011;59983;52.010;5.420;2023-07-16T09:48:18;12.10;;;5.20;;
72109;SDS011;59983;52.010;5.420;2023-07-16T09:50:49;6.10;;;5.55;;
72109;SDS011;59983;52.010;5.420;2023-07-16T09:53:18;7.35;;;5.88;;
72109;SDS011;59983;52.010;5.420;2023-07-16T09:55:46;12.50;;;5.73;;
72109;SDS011;59983;52.010;5.420;2023-07-16T09:58:14;10.35;;;5.43;;
72109;SDS011;59983;52.010;5.420;2023-07-16T10:00:46;8.07;;;5.50;;
72109;SDS011;59983;52.010;5.420;2023-07-16T10:03:14;8.50;;;5.20;;
72109;SDS011;59983;52.010;5.420;2023-07-16T10:05:42;5.93;;;5.13;;
72109;SDS011;59983;52.010;5.420;2023-07-16T10:08:16;9.27;;;6.13;;
72109;SDS011;59983;52.010;5.420;2023-07-16T10:13:13;7.03;;;5.63;;
72109;SDS011;59983;52.010;5.420;2023-07-16T10:15:53;9.07;;;5.72;;
72109;SDS011;59983;52.010;5.420;2023-07-16T10:21:04;6.93;;;5.70;;
72109;SDS011;59983;52.010;5.420;2023-07-16T10:23:39;6.32;;;5.65;;
72109;SDS011;59983;52.010;5.420;2023-07-16T10:26:10;11.07;;;4.90;;
72109;SDS011;59983;52.010;5.420;2023-07-16T10:28:45;12.68;;;5.20;;
72109;SDS011;59983;52.010;5.420;2023-07-16T10:31:19;10.90;;;6.03;;
72109;SDS011;59983;52.010;5.420;2023-07-16T10:33:58;11.30;;;6.20;;
72109;SDS011;59983;52.010;5.420;2023-07-16T10:36:28;15.30;;;6.05;;
72109;SDS011;59983;52.010;5.420;2023-07-16T10:39:01;9.07;;;5.57;;
72109;SDS011;59983;52.010;5.420;2023-07-16T10:41:28;8.77;;;6.10;;
72109;SDS011;59983;52.010;5.420;2023-07-16T10:43:57;9.85;;;5.40;;
72109;SDS011;59983;52.010;5.420;2023-07-16T10:46:24;9.23;;;6.27;;
72109;SDS011;59983;52.010;5.420;2023-07-16T10:48:50;9.77;;;5.90;;
72109;SDS011;59983;52.010;5.420;2023-07-16T10:51:17;11.90;;;6.10;;
72109;SDS011;59983;52.010;5.420;2023-07-16T10:53:44;8.48;;;6.05;;
72109;SDS011;59983;52.010;5.420;2023-07-16T10:56:10;9.88;;;5.60;;
72109;SDS011;59983;52.010;5.420;2023-07-16T10:58:37;8.13;;;5.47;;
72109;SDS011;59983;52.010;5.420;2023-07-16T11:01:03;7.50;;;5.38;;
72109;SDS011;59983;52.010;5.420;2023-07-16T11:03:30;10.50;;;5.47;;
72109;SDS011;59983;52.010;5.420;2023-07-16T11:05:57;9.15;;;5.47;;
72109;SDS011;59983;52.010;5.420;2023-07-16T11:08:24;10.27;;;5.60;;
72109;SDS011;59983;52.010;5.420;2023-07-16T11:10:57;5.50;;;5.00;;
72109;SDS011;59983;52.010;5.420;2023-07-16T11:13:33;10.73;;;5.68;;
72109;SDS011;59983;52.010;5.420;2023-07-16T11:16:09;5.88;;;5.38;;
72109;SDS011;59983;52.010;5.420;2023-07-16T11:18:37;11.02;;;4.45;;
72109;SDS011;59983;52.010;5.420;2023-07-16T11:21:03;7.15;;;4.78;;
72109;SDS011;59983;52.010;5.420;2023-07-16T11:23:34;9.47;;;4.63;;
72109;SDS011;59983;52.010;5.420;2023-07-16T11:26:01;6.68;;;4.25;;
72109;SDS011;59983;52.010;5.420;2023-07-16T11:28:36;6.55;;;5.18;;
72109;SDS011;59983;52.010;5.420;2023-07-16T11:31:10;5.70;;;4.90;;
72109;SDS011;59983;52.010;5.420;2023-07-16T11:33:38;6.72;;;6.05;;
72109;SDS011;59983;52.010;5.420;2023-07-16T11:36:08;9.30;;;5.20;;
72109;SDS011;59983;52.010;5.420;2023-07-16T11:38:38;6.60;;;4.35;;
72109;SDS011;59983;52.010;5.420;2023-07-16T11:41:05;4.93;;;4.50;;
72109;SDS011;59983;52.010;5.420;2023-07-16T11:43:34;16.15;;;5.55;;
72109;SDS011;59983;52.010;5.420;2023-07-16T11:46:05;6.13;;;5.43;;
72109;SDS011;59983;52.010;5.420;2023-07-16T11:48:41;10.10;;;5.50;;
72109;SDS011;59983;52.010;5.420;2023-07-16T11:51:08;9.90;;;6.15;;
72109;SDS011;59983;52.010;5.420;2023-07-16T11:53:35;5.93;;;5.03;;
72109;SDS011;59983;52.010;5.420;2023-07-16T11:56:05;9.70;;;7.00;;
72109;SDS011;59983;52.010;5.420;2023-07-16T11:58:31;7.07;;;6.05;;
72109;SDS011;59983;52.010;5.420;2023-07-16T12:00:58;9.40;;;6.17;;
72109;SDS011;59983;52.010;5.420;2023-07-16T12:03:24;7.10;;;5.20;;
72109;SDS011;59983;52.010;5.420;2023-07-16T12:05:51;6.45;;;5.03;;
72109;SDS011;59983;52.010;5.420;2023-07-16T12:08:19;4.68;;;3.70;;
72109;SDS011;59983;52.010;5.420;2023-07-16T12:10:46;8.82;;;5.03;;
72109;SDS011;59983;52.010;5.420;2023-07-16T12:13:12;9.43;;;4.07;;
72109;SDS011;59983;52.010;5.420;2023-07-16T12:15:39;5.07;;;4.22;;
72109;SDS011;59983;52.010;5.420;2023-07-16T12:18:05;9.50;;;4.97;;
72109;SDS011;59983;52.010;5.420;2023-07-16T12:20:33;7.32;;;5.32;;
72109;SDS011;59983;52.010;5.420;2023-07-16T12:23:00;4.53;;;3.92;;
72109;SDS011;59983;52.010;5.420;2023-07-16T12:25:27;6.60;;;4.97;;
72109;SDS011;59983;52.010;5.420;2023-07-16T12:27:54;5.28;;;4.78;;
72109;SDS011;59983;52.010;5.420;2023-07-16T12:30:21;4.63;;;3.75;;
72109;SDS011;59983;52.010;5.420;2023-07-16T12:32:48;3.75;;;3.35;;
72109;SDS011;59983;52.010;5.420;2023-07-16T12:35:14;7.40;;;4.00;;
72109;SDS011;59983;52.010;5.420;2023-07-16T12:37:41;5.03;;;3.13;;
72109;SDS011;59983;52.010;5.420;2023-07-16T12:40:08;4.22;;;3.83;;
72109;SDS011;59983;52.010;5.420;2023-07-16T12:42:34;8.77;;;3.63;;
72109;SDS011;59983;52.010;5.420;2023-07-16T12:45:01;3.65;;;2.95;;
72109;SDS011;59983;52.010;5.420;2023-07-16T12:47:28;5.18;;;2.92;;
72109;SDS011;59983;52.010;5.420;2023-07-16T12:49:55;3.13;;;2.93;;
72109;SDS011;59983;52.010;5.420;2023-07-16T12:52:21;5.15;;;3.03;;
72109;SDS011;59983;52.010;5.420;2023-07-16T12:54:48;4.18;;;2.45;;
72109;SDS011;59983;52.010;5.420;2023-07-16T12:57:17;5.80;;;2.58;;
72109;SDS011;59983;52.010;5.420;2023-07-16T12:59:43;3.72;;;2.20;;
72109;SDS011;59983;52.010;5.420;2023-07-16T13:02:10;4.23;;;2.33;;
72109;SDS011;59983;52.010;5.420;2023-07-16T13:04:36;3.65;;;2.50;;
72109;SDS011;59983;52.010;5.420;2023-07-16T13:07:03;3.22;;;2.28;;
72109;SDS011;59983;52.010;5.420;2023-07-16T13:09:30;5.28;;;2.63;;
72109;SDS011;59983;52.010;5.420;2023-07-16T13:11:56;4.85;;;2.50;;
72109;SDS011;59983;52.010;5.420;2023-07-16T13:14:23;2.40;;;2.20;;
72109;SDS011;59983;52.010;5.420;2023-07-16T13:16:49;2.30;;;2.10;;
72109;SDS011;59983;52.010;5.420;2023-07-16T13:19:16;2.75;;;1.92;;
72109;SDS011;59983;52.010;5.420;2023-07-16T13:21:43;2.88;;;1.92;;
72109;SDS011;59983;52.010;5.420;2023-07-16T13:24:09;4.78;;;3.70;;
72109;SDS011;59983;52.010;5.420;2023-07-16T13:26:36;6.37;;;2.67;;
72109;SDS011;59983;52.010;5.420;2023-07-16T13:29:03;7.30;;;2.63;;
72109;SDS011;59983;52.010;5.420;2023-07-16T13:31:29;5.95;;;2.78;;
72109;SDS011;59983;52.010;5.420;2023-07-16T13:33:56;2.75;;;2.28;;
72109;SDS011;59983;52.010;5.420;2023-07-16T13:36:22;4.97;;;3.10;;
72109;SDS011;59983;52.010;5.420;2023-07-16T13:38:49;4.63;;;2.70;;
72109;SDS011;59983;52.010;5.420;2023-07-16T13:41:16;5.05;;;3.45;;
72109;SDS011;59983;52.010;5.420;2023-07-16T13:43:42;5.55;;;3.55;;
72109;SDS011;59983;52.010;5.420;2023-07-16T13:46:09;4.35;;;3.55;;
72109;SDS011;59983;52.010;5.420;2023-07-16T13:48:35;6.97;;;3.47;;
72109;SDS011;59983;52.010;5.420;2023-07-16T13:51:21;5.33;;;2.70;;
72109;SDS011;59983;52.010;5.420;2023-07-16T13:53:47;5.05;;;2.15;;
72109;SDS011;59983;52.010;5.420;2023-07-16T13:56:14;3.45;;;2.55;;
72109;SDS011;59983;52.010;5.420;2023-07-16T13:58:41;3.78;;;2.30;;
72109;SDS011;59983;52.010;5.420;2023-07-16T14:01:08;3.42;;;2.58;;
72109;SDS011;59983;52.010;5.420;2023-07-16T14:03:34;4.97;;;1.83;;
72109;SDS011;59983;52.010;5.420;2023-07-16T14:06:01;4.90;;;1.77;;
72109;SDS011;59983;52.010;5.420;2023-07-16T14:08:28;4.35;;;1.60;;
72109;SDS011;59983;52.010;5.420;2023-07-16T14:10:54;3.00;;;1.88;;
72109;SDS011;59983;52.010;5.420;2023-07-16T14:13:21;3.20;;;1.50;;
72109;SDS011;59983;52.010;5.420;2023-07-16T14:15:47;5.07;;;1.87;;
72109;SDS011;59983;52.010;5.420;2023-07-16T14:18:14;2.97;;;1.25;;
72109;SDS011;59983;52.010;5.420;2023-07-16T14:20:41;2.58;;;1.60;;
72109;SDS011;59983;52.010;5.420;2023-07-16T14:23:07;3.97;;;1.80;;
72109;SDS011;59983;52.010;5.420;2023-07-16T14:25:34;2.45;;;1.80;;
72109;SDS011;59983;52.010;5.420;2023-07-16T14:28:01;3.17;;;2.00;;
72109;SDS011;59983;52.010;5.420;2023-07-16T14:30:27;3.17;;;2.08;;
72109;SDS011;59983;52.010;5.420;2023-07-16T14:32:54;3.45;;;1.70;;
72109;SDS011;59983;52.010;5.420;2023-07-16T14:35:21;4.05;;;2.00;;
72109;SDS011;59983;52.010;5.420;2023-07-16T14:38:02;3.30;;;1.88;;
72109;SDS011;59983;52.010;5.420;2023-07-16T14:40:29;4.50;;;2.10;;
72109;SDS011;59983;52.010;5.420;2023-07-16T14:42:55;5.65;;;1.83;;
72109;SDS011;59983;52.010;5.420;2023-07-16T14:45:22;4.47;;;2.40;;
72109;SDS011;59983;52.010;5.420;2023-07-16T14:47:49;4.90;;;2.10;;
72109;SDS011;59983;52.010;5.420;2023-07-16T14:50:16;4.10;;;2.00;;
72109;SDS011;59983;52.010;5.420;2023-07-16T14:52:42;4.13;;;1.90;;
72109;SDS011;59983;52.010;5.420;2023-07-16T14:55:09;4.18;;;1.92;;
72109;SDS011;59983;52.010;5.420;2023-07-16T14:57:35;2.80;;;1.95;;
72109;SDS011;59983;52.010;5.420;2023-07-16T15:00:03;2.85;;;1.90;;
72109;SDS011;59983;52.010;5.420;2023-07-16T15:02:31;3.05;;;1.73;;